sensor_id;sensor_type;location;lat;lon;timestamp;P1;durP1;ratioP1;P2;durP2;ratioP2
50932;SDS011;36921;49.006;9.292;2022-12-18T00:01:44;73.10;;;24.40;;
50932;SDS011;36921;49.006;9.292;2022-12-18T00:04:16;65.53;;;24.00;;
50932;SDS011;36921;49.006;9.292;2022-12-18T00:06:45;64.47;;;24.43;;
50932;SDS011;36921;49.006;9.292;2022-12-18T00:09:11;63.80;;;24.02;;
50932;SDS011;36921;49.006;9.292;2022-12-18T00:11:36;67.90;;;23.42;;
50932;SDS011;36921;49.006;9.292;2022-12-18T00:14:01;64.77;;;23.50;;
50932;SDS011;36921;49.006;9.292;2022-12-18T00:16:27;74.70;;;23.52;;
50932;SDS011;36921;49.006;9.292;2022-12-18T00:18:55;65.68;;;21.80;;
50932;SDS011;36921;49.006;9.292;2022-12-18T00:21:25;74.43;;;25.38;;
50932;SDS011;36921;49.006;9.292;2022-12-18T00:23:51;67.47;;;26.65;;
50932;SDS011;36921;49.006;9.292;2022-12-18T00:26:18;74.70;;;26.80;;
50932;SDS011;36921;49.006;9.292;2022-12-18T00:28:48;74.20;;;27.27;;
50932;SDS011;36921;49.006;9.292;2022-12-18T00:31:15;79.53;;;27.53;;
50932;SDS011;36921;49.006;9.292;2022-12-18T00:33:42;64.32;;;25.17;;
50932;SDS011;36921;49.006;9.292;2022-12-18T00:36:12;86.82;;;28.73;;
50932;SDS011;36921;49.006;9.292;2022-12-18T00:38:45;80.63;;;27.43;;
50932;SDS011;36921;49.006;9.292;2022-12-18T00:41:11;71.50;;;26.50;;
50932;SDS011;36921;49.006;9.292;2022-12-18T00:43:39;87.23;;;27.10;;
50932;SDS011;36921;49.006;9.292;2022-12-18T00:46:04;79.37;;;24.37;;
50932;SDS011;36921;49.006;9.292;2022-12-18T00:48:30;71.43;;;24.13;;
50932;SDS011;36921;49.006;9.292;2022-12-18T00:50:56;68.93;;;23.60;;
50932;SDS011;36921;49.006;9.292;2022-12-18T00:53:21;70.10;;;22.37;;
50932;SDS011;36921;49.006;9.292;2022-12-18T00:55:46;66.05;;;22.25;;
50932;SDS011;36921;49.006;9.292;2022-12-18T00:58:12;67.15;;;20.65;;
50932;SDS011;36921;49.006;9.292;2022-12-18T01:00:40;59.00;;;20.15;;
50932;SDS011;36921;49.006;9.292;2022-12-18T01:03:05;59.28;;;19.83;;
50932;SDS011;36921;49.006;9.292;2022-12-18T01:05:31;57.30;;;19.17;;
50932;SDS011;36921;49.006;9.292;2022-12-18T01:07:57;59.47;;;19.43;;
50932;SDS011;36921;49.006;9.292;2022-12-18T01:10:24;58.83;;;19.17;;
50932;SDS011;36921;49.006;9.292;2022-12-18T01:12:50;57.25;;;20.45;;
50932;SDS011;36921;49.006;9.292;2022-12-18T01:15:16;57.92;;;19.40;;
50932;SDS011;36921;49.006;9.292;2022-12-18T01:17:43;55.45;;;20.85;;
50932;SDS011;36921;49.006;9.292;2022-12-18T01:20:09;53.20;;;18.52;;
50932;SDS011;36921;49.006;9.292;2022-12-18T01:22:36;42.22;;;16.77;;
50932;SDS011;36921;49.006;9.292;2022-12-18T01:25:02;55.15;;;18.88;;
50932;SDS011;36921;49.006;9.292;2022-12-18T01:27:29;50.53;;;18.60;;
50932;SDS011;36921;49.006;9.292;2022-12-18T01:29:54;50.95;;;19.05;;
50932;SDS011;36921;49.006;9.292;2022-12-18T01:32:20;56.58;;;18.70;;
50932;SDS011;36921;49.006;9.292;2022-12-18T01:34:45;54.17;;;19.30;;
50932;SDS011;36921;49.006;9.292;2022-12-18T01:37:10;50.40;;;17.57;;
50932;SDS011;36921;49.006;9.292;2022-12-18T01:39:36;53.73;;;19.10;;
50932;SDS011;36921;49.006;9.292;2022-12-18T01:42:09;56.70;;;19.70;;
50932;SDS011;36921;49.006;9.292;2022-12-18T01:47:44;51.73;;;20.07;;
50932;SDS011;36921;49.006;9.292;2022-12-18T01:50:11;56.37;;;20.47;;
50932;SDS011;36921;49.006;9.292;2022-12-18T01:52:41;55.70;;;20.27;;
50932;SDS011;36921;49.006;9.292;2022-12-18T01:55:09;57.90;;;21.87;;
50932;SDS011;36921;49.006;9.292;2022-12-18T01:57:35;50.03;;;19.20;;
50932;SDS011;36921;49.006;9.292;2022-12-18T02:00:07;56.30;;;20.27;;
50932;SDS011;36921;49.006;9.292;2022-12-18T02:02:34;51.93;;;21.10;;
50932;SDS011;36921;49.006;9.292;2022-12-18T02:05:00;59.97;;;19.70;;
50932;SDS011;36921;49.006;9.292;2022-12-18T02:07:32;42.83;;;17.00;;
50932;SDS011;36921;49.006;9.292;2022-12-18T02:10:06;49.83;;;15.35;;
50932;SDS011;36921;49.006;9.292;2022-12-18T02:15:44;44.47;;;16.97;;
50932;SDS011;36921;49.006;9.292;2022-12-18T02:18:19;49.57;;;18.20;;
50932;SDS011;36921;49.006;9.292;2022-12-18T02:24:02;51.70;;;18.10;;
50932;SDS011;36921;49.006;9.292;2022-12-18T02:27:17;57.13;;;19.57;;
50932;SDS011;36921;49.006;9.292;2022-12-18T02:29:29;52.47;;;18.07;;
50932;SDS011;36921;49.006;9.292;2022-12-18T02:31:57;52.37;;;17.87;;
50932;SDS011;36921;49.006;9.292;2022-12-18T02:34:26;55.95;;;20.80;;
50932;SDS011;36921;49.006;9.292;2022-12-18T02:36:55;49.73;;;19.47;;
50932;SDS011;36921;49.006;9.292;2022-12-18T02:39:22;51.13;;;20.90;;
50932;SDS011;36921;49.006;9.292;2022-12-18T02:41:50;66.18;;;21.10;;
50932;SDS011;36921;49.006;9.292;2022-12-18T02:44:16;53.17;;;19.80;;
50932;SDS011;36921;49.006;9.292;2022-12-18T02:46:43;56.15;;;18.65;;
50932;SDS011;36921;49.006;9.292;2022-12-18T02:55:09;61.67;;;19.27;;
50932;SDS011;36921;49.006;9.292;2022-12-18T02:57:51;51.13;;;19.70;;
50932;SDS011;36921;49.006;9.292;2022-12-18T03:00:20;58.60;;;19.93;;
50932;SDS011;36921;49.006;9.292;2022-12-18T03:02:56;53.63;;;19.90;;
50932;SDS011;36921;49.006;9.292;2022-12-18T03:06:12;52.08;;;20.05;;
50932;SDS011;36921;49.006;9.292;2022-12-18T03:08:37;50.13;;;15.20;;
50932;SDS011;36921;49.006;9.292;2022-12-18T03:11:07;45.43;;;17.27;;
50932;SDS011;36921;49.006;9.292;2022-12-18T03:13:48;49.83;;;19.05;;
50932;SDS011;36921;49.006;9.292;2022-12-18T03:16:20;52.40;;;18.80;;
50932;SDS011;36921;49.006;9.292;2022-12-18T03:18:57;51.53;;;19.07;;
50932;SDS011;36921;49.006;9.292;2022-12-18T03:21:27;52.73;;;18.83;;
50932;SDS011;36921;49.006;9.292;2022-12-18T03:23:57;52.20;;;19.20;;
50932;SDS011;36921;49.006;9.292;2022-12-18T03:26:24;45.13;;;17.27;;
50932;SDS011;36921;49.006;9.292;2022-12-18T03:28:53;52.87;;;17.80;;
50932;SDS011;36921;49.006;9.292;2022-12-18T03:31:24;54.67;;;17.80;;
50932;SDS011;36921;49.006;9.292;2022-12-18T03:33:54;49.30;;;16.67;;
50932;SDS011;36921;49.006;9.292;2022-12-18T03:36:22;53.77;;;18.30;;
50932;SDS011;36921;49.006;9.292;2022-12-18T03:38:48;45.07;;;17.50;;
50932;SDS011;36921;49.006;9.292;2022-12-18T03:43:58;47.77;;;17.00;;
50932;SDS011;36921;49.006;9.292;2022-12-18T03:49:01;48.67;;;18.17;;
50932;SDS011;36921;49.006;9.292;2022-12-18T03:51:50;55.87;;;17.60;;
50932;SDS011;36921;49.006;9.292;2022-12-18T03:54:19;53.50;;;19.53;;
50932;SDS011;36921;49.006;9.292;2022-12-18T03:56:47;53.57;;;19.53;;
50932;SDS011;36921;49.006;9.292;2022-12-18T03:59:17;43.70;;;17.33;;
50932;SDS011;36921;49.006;9.292;2022-12-18T04:01:47;54.57;;;21.23;;
50932;SDS011;36921;49.006;9.292;2022-12-18T04:04:17;57.23;;;19.97;;
50932;SDS011;36921;49.006;9.292;2022-12-18T04:06:43;48.87;;;17.57;;
50932;SDS011;36921;49.006;9.292;2022-12-18T04:09:12;47.95;;;17.33;;
50932;SDS011;36921;49.006;9.292;2022-12-18T04:11:37;47.93;;;17.47;;
50932;SDS011;36921;49.006;9.292;2022-12-18T04:14:03;53.73;;;17.33;;
50932;SDS011;36921;49.006;9.292;2022-12-18T04:16:29;53.33;;;18.17;;
50932;SDS011;36921;49.006;9.292;2022-12-18T04:18:54;52.10;;;19.30;;
50932;SDS011;36921;49.006;9.292;2022-12-18T04:21:20;51.97;;;19.10;;
50932;SDS011;36921;49.006;9.292;2022-12-18T04:23:45;53.83;;;18.27;;
50932;SDS011;36921;49.006;9.292;2022-12-18T04:26:11;56.87;;;18.90;;
50932;SDS011;36921;49.006;9.292;2022-12-18T04:28:36;46.10;;;17.25;;
50932;SDS011;36921;49.006;9.292;2022-12-18T04:31:01;61.97;;;19.17;;
50932;SDS011;36921;49.006;9.292;2022-12-18T04:33:27;50.47;;;17.23;;
50932;SDS011;36921;49.006;9.292;2022-12-18T04:35:53;51.57;;;18.53;;
50932;SDS011;36921;49.006;9.292;2022-12-18T04:38:18;57.30;;;18.13;;
50932;SDS011;36921;49.006;9.292;2022-12-18T04:40:43;45.20;;;16.57;;
50932;SDS011;36921;49.006;9.292;2022-12-18T04:43:08;44.03;;;16.57;;
50932;SDS011;36921;49.006;9.292;2022-12-18T04:45:34;59.03;;;18.40;;
50932;SDS011;36921;49.006;9.292;2022-12-18T04:47:59;53.07;;;18.73;;
50932;SDS011;36921;49.006;9.292;2022-12-18T04:50:25;56.27;;;19.23;;
50932;SDS011;36921;49.006;9.292;2022-12-18T04:52:52;63.73;;;18.63;;
50932;SDS011;36921;49.006;9.292;2022-12-18T04:55:17;53.20;;;18.57;;
50932;SDS011;36921;49.006;9.292;2022-12-18T04:57:43;52.67;;;19.17;;
50932;SDS011;36921;49.006;9.292;2022-12-18T05:00:08;49.37;;;19.57;;
50932;SDS011;36921;49.006;9.292;2022-12-18T05:02:35;47.53;;;18.87;;
50932;SDS011;36921;49.006;9.292;2022-12-18T05:05:00;56.20;;;19.30;;
50932;SDS011;36921;49.006;9.292;2022-12-18T05:07:25;46.87;;;18.23;;
50932;SDS011;36921;49.006;9.292;2022-12-18T05:09:51;48.17;;;16.83;;
50932;SDS011;36921;49.006;9.292;2022-12-18T05:12:16;48.13;;;20.00;;
50932;SDS011;36921;49.006;9.292;2022-12-18T05:14:41;47.10;;;17.10;;
50932;SDS011;36921;49.006;9.292;2022-12-18T05:17:07;58.30;;;18.43;;
50932;SDS011;36921;49.006;9.292;2022-12-18T05:19:32;44.93;;;19.27;;
50932;SDS011;36921;49.006;9.292;2022-12-18T05:21:57;50.90;;;19.17;;
50932;SDS011;36921;49.006;9.292;2022-12-18T05:24:23;46.47;;;18.13;;
50932;SDS011;36921;49.006;9.292;2022-12-18T05:26:48;59.13;;;20.03;;
50932;SDS011;36921;49.006;9.292;2022-12-18T05:29:14;52.40;;;18.67;;
50932;SDS011;36921;49.006;9.292;2022-12-18T05:31:39;43.70;;;16.57;;
50932;SDS011;36921;49.006;9.292;2022-12-18T05:34:05;41.30;;;15.63;;
50932;SDS011;36921;49.006;9.292;2022-12-18T05:36:30;53.10;;;18.80;;
50932;SDS011;36921;49.006;9.292;2022-12-18T05:38:56;51.20;;;18.30;;
50932;SDS011;36921;49.006;9.292;2022-12-18T05:41:21;48.57;;;17.87;;
50932;SDS011;36921;49.006;9.292;2022-12-18T05:43:46;42.93;;;14.60;;
50932;SDS011;36921;49.006;9.292;2022-12-18T05:46:13;53.63;;;16.80;;
50932;SDS011;36921;49.006;9.292;2022-12-18T05:48:40;40.57;;;15.83;;
50932;SDS011;36921;49.006;9.292;2022-12-18T05:51:09;53.57;;;17.70;;
50932;SDS011;36921;49.006;9.292;2022-12-18T05:53:37;39.27;;;16.80;;
50932;SDS011;36921;49.006;9.292;2022-12-18T05:56:03;46.73;;;17.67;;
50932;SDS011;36921;49.006;9.292;2022-12-18T05:58:30;42.10;;;16.47;;
50932;SDS011;36921;49.006;9.292;2022-12-18T06:00:56;35.43;;;14.43;;
50932;SDS011;36921;49.006;9.292;2022-12-18T06:03:21;44.87;;;15.53;;
50932;SDS011;36921;49.006;9.292;2022-12-18T06:05:46;39.57;;;14.67;;
50932;SDS011;36921;49.006;9.292;2022-12-18T06:08:12;31.40;;;13.60;;
50932;SDS011;36921;49.006;9.292;2022-12-18T06:10:38;44.80;;;15.43;;
50932;SDS011;36921;49.006;9.292;2022-12-18T06:13:05;44.23;;;17.17;;
50932;SDS011;36921;49.006;9.292;2022-12-18T06:15:31;37.53;;;15.03;;
50932;SDS011;36921;49.006;9.292;2022-12-18T06:17:57;45.63;;;16.47;;
50932;SDS011;36921;49.006;9.292;2022-12-18T06:20:23;43.40;;;15.60;;
50932;SDS011;36921;49.006;9.292;2022-12-18T06:22:48;37.30;;;15.30;;
50932;SDS011;36921;49.006;9.292;2022-12-18T06:25:14;43.77;;;14.87;;
50932;SDS011;36921;49.006;9.292;2022-12-18T06:27:40;44.77;;;16.93;;
50932;SDS011;36921;49.006;9.292;2022-12-18T06:30:05;55.77;;;17.00;;
50932;SDS011;36921;49.006;9.292;2022-12-18T06:32:31;43.27;;;15.80;;
50932;SDS011;36921;49.006;9.292;2022-12-18T06:34:56;50.57;;;17.80;;
50932;SDS011;36921;49.006;9.292;2022-12-18T06:37:22;44.77;;;16.43;;
50932;SDS011;36921;49.006;9.292;2022-12-18T06:39:51;52.60;;;15.85;;
50932;SDS011;36921;49.006;9.292;2022-12-18T06:42:23;45.70;;;16.70;;
50932;SDS011;36921;49.006;9.292;2022-12-18T06:44:49;41.87;;;15.67;;
50932;SDS011;36921;49.006;9.292;2022-12-18T06:47:14;45.73;;;18.13;;
50932;SDS011;36921;49.006;9.292;2022-12-18T06:49:40;44.67;;;17.33;;
50932;SDS011;36921;49.006;9.292;2022-12-18T06:52:05;38.90;;;15.67;;
50932;SDS011;36921;49.006;9.292;2022-12-18T06:54:30;51.37;;;16.50;;
50932;SDS011;36921;49.006;9.292;2022-12-18T06:56:56;44.17;;;17.23;;
50932;SDS011;36921;49.006;9.292;2022-12-18T06:59:21;49.87;;;15.93;;
50932;SDS011;36921;49.006;9.292;2022-12-18T07:01:47;38.27;;;15.40;;
50932;SDS011;36921;49.006;9.292;2022-12-18T07:04:12;46.13;;;15.63;;
50932;SDS011;36921;49.006;9.292;2022-12-18T07:06:37;41.93;;;15.63;;
50932;SDS011;36921;49.006;9.292;2022-12-18T07:09:03;49.97;;;16.17;;
50932;SDS011;36921;49.006;9.292;2022-12-18T07:11:29;48.87;;;15.60;;
50932;SDS011;36921;49.006;9.292;2022-12-18T07:13:59;46.87;;;15.90;;
50932;SDS011;36921;49.006;9.292;2022-12-18T07:16:24;48.67;;;16.63;;
50932;SDS011;36921;49.006;9.292;2022-12-18T07:18:49;42.87;;;16.37;;
50932;SDS011;36921;49.006;9.292;2022-12-18T07:21:17;43.23;;;16.20;;
50932;SDS011;36921;49.006;9.292;2022-12-18T07:23:44;41.43;;;15.07;;
50932;SDS011;36921;49.006;9.292;2022-12-18T07:26:13;37.95;;;16.10;;
50932;SDS011;36921;49.006;9.292;2022-12-18T07:28:40;48.97;;;19.27;;
50932;SDS011;36921;49.006;9.292;2022-12-18T07:31:07;41.70;;;15.67;;
50932;SDS011;36921;49.006;9.292;2022-12-18T07:33:35;48.35;;;15.40;;
50932;SDS011;36921;49.006;9.292;2022-12-18T07:36:04;43.03;;;14.63;;
50932;SDS011;36921;49.006;9.292;2022-12-18T07:38:31;45.47;;;16.53;;
50932;SDS011;36921;49.006;9.292;2022-12-18T07:41:01;44.47;;;17.30;;
50932;SDS011;36921;49.006;9.292;2022-12-18T07:43:31;51.03;;;15.77;;
50932;SDS011;36921;49.006;9.292;2022-12-18T07:45:56;44.43;;;15.43;;
50932;SDS011;36921;49.006;9.292;2022-12-18T07:48:21;50.80;;;16.33;;
50932;SDS011;36921;49.006;9.292;2022-12-18T07:50:47;44.70;;;16.30;;
50932;SDS011;36921;49.006;9.292;2022-12-18T07:53:12;45.00;;;16.03;;
50932;SDS011;36921;49.006;9.292;2022-12-18T07:55:39;41.63;;;14.53;;
50932;SDS011;36921;49.006;9.292;2022-12-18T07:58:06;41.33;;;15.03;;
50932;SDS011;36921;49.006;9.292;2022-12-18T08:00:31;43.67;;;14.53;;
50932;SDS011;36921;49.006;9.292;2022-12-18T08:02:57;44.20;;;15.50;;
50932;SDS011;36921;49.006;9.292;2022-12-18T08:05:22;44.10;;;16.10;;
50932;SDS011;36921;49.006;9.292;2022-12-18T08:07:48;44.43;;;15.27;;
50932;SDS011;36921;49.006;9.292;2022-12-18T08:10:13;42.47;;;16.43;;
50932;SDS011;36921;49.006;9.292;2022-12-18T08:12:39;42.28;;;15.15;;
50932;SDS011;36921;49.006;9.292;2022-12-18T08:15:04;42.63;;;15.45;;
50932;SDS011;36921;49.006;9.292;2022-12-18T08:17:30;52.20;;;16.20;;
50932;SDS011;36921;49.006;9.292;2022-12-18T08:19:55;48.20;;;16.58;;
50932;SDS011;36921;49.006;9.292;2022-12-18T08:22:21;46.50;;;15.07;;
50932;SDS011;36921;49.006;9.292;2022-12-18T08:24:46;43.47;;;15.57;;
50932;SDS011;36921;49.006;9.292;2022-12-18T08:27:11;38.28;;;13.48;;
50932;SDS011;36921;49.006;9.292;2022-12-18T08:29:37;42.85;;;15.32;;
50932;SDS011;36921;49.006;9.292;2022-12-18T08:32:03;39.15;;;15.10;;
50932;SDS011;36921;49.006;9.292;2022-12-18T08:34:28;38.33;;;13.43;;
50932;SDS011;36921;49.006;9.292;2022-12-18T08:36:55;41.88;;;14.10;;
50932;SDS011;36921;49.006;9.292;2022-12-18T08:39:40;42.30;;;14.93;;
50932;SDS011;36921;49.006;9.292;2022-12-18T08:42:06;36.92;;;14.02;;
50932;SDS011;36921;49.006;9.292;2022-12-18T08:44:49;40.72;;;14.90;;
50932;SDS011;36921;49.006;9.292;2022-12-18T08:47:15;41.08;;;13.40;;
50932;SDS011;36921;49.006;9.292;2022-12-18T08:49:40;33.88;;;12.95;;
50932;SDS011;36921;49.006;9.292;2022-12-18T08:52:06;46.03;;;15.05;;
50932;SDS011;36921;49.006;9.292;2022-12-18T08:54:31;37.17;;;14.18;;
50932;SDS011;36921;49.006;9.292;2022-12-18T08:56:56;35.83;;;13.65;;
50932;SDS011;36921;49.006;9.292;2022-12-18T08:59:22;48.38;;;15.90;;
50932;SDS011;36921;49.006;9.292;2022-12-18T09:01:48;37.63;;;13.35;;
50932;SDS011;36921;49.006;9.292;2022-12-18T09:04:14;40.10;;;15.00;;
50932;SDS011;36921;49.006;9.292;2022-12-18T09:06:40;37.00;;;13.40;;
50932;SDS011;36921;49.006;9.292;2022-12-18T09:09:05;32.83;;;14.15;;
50932;SDS011;36921;49.006;9.292;2022-12-18T09:11:31;33.75;;;13.43;;
50932;SDS011;36921;49.006;9.292;2022-12-18T09:13:58;34.92;;;13.32;;
50932;SDS011;36921;49.006;9.292;2022-12-18T09:16:26;41.08;;;14.50;;
50932;SDS011;36921;49.006;9.292;2022-12-18T09:18:54;36.20;;;14.73;;
50932;SDS011;36921;49.006;9.292;2022-12-18T09:21:24;35.42;;;14.98;;
50932;SDS011;36921;49.006;9.292;2022-12-18T09:23:51;36.38;;;14.50;;
50932;SDS011;36921;49.006;9.292;2022-12-18T09:26:18;40.72;;;14.65;;
50932;SDS011;36921;49.006;9.292;2022-12-18T09:28:44;39.47;;;13.75;;
50932;SDS011;36921;49.006;9.292;2022-12-18T09:31:10;34.45;;;13.05;;
50932;SDS011;36921;49.006;9.292;2022-12-18T09:33:37;32.17;;;12.68;;
50932;SDS011;36921;49.006;9.292;2022-12-18T09:36:05;37.28;;;14.20;;
50932;SDS011;36921;49.006;9.292;2022-12-18T09:38:32;33.85;;;13.93;;
50932;SDS011;36921;49.006;9.292;2022-12-18T09:41:05;34.47;;;13.75;;
50932;SDS011;36921;49.006;9.292;2022-12-18T09:43:44;32.97;;;13.43;;
50932;SDS011;36921;49.006;9.292;2022-12-18T09:46:37;33.85;;;15.15;;
50932;SDS011;36921;49.006;9.292;2022-12-18T09:49:07;37.05;;;14.70;;
50932;SDS011;36921;49.006;9.292;2022-12-18T09:51:38;31.77;;;14.27;;
50932;SDS011;36921;49.006;9.292;2022-12-18T09:54:24;32.00;;;14.98;;
50932;SDS011;36921;49.006;9.292;2022-12-18T09:56:55;32.90;;;14.30;;
50932;SDS011;36921;49.006;9.292;2022-12-18T09:59:24;30.20;;;14.05;;
50932;SDS011;36921;49.006;9.292;2022-12-18T10:02:11;30.88;;;14.30;;
50932;SDS011;36921;49.006;9.292;2022-12-18T10:04:39;34.47;;;16.20;;
50932;SDS011;36921;49.006;9.292;2022-12-18T10:07:15;28.52;;;14.23;;
50932;SDS011;36921;49.006;9.292;2022-12-18T10:10:01;33.03;;;15.45;;
50932;SDS011;36921;49.006;9.292;2022-12-18T10:12:39;36.33;;;16.33;;
50932;SDS011;36921;49.006;9.292;2022-12-18T10:15:23;29.77;;;14.73;;
50932;SDS011;36921;49.006;9.292;2022-12-18T10:20:32;31.17;;;14.38;;
50932;SDS011;36921;49.006;9.292;2022-12-18T10:23:09;34.60;;;14.98;;
50932;SDS011;36921;49.006;9.292;2022-12-18T10:28:27;32.80;;;14.55;;
50932;SDS011;36921;49.006;9.292;2022-12-18T10:30:55;27.23;;;12.80;;
50932;SDS011;36921;49.006;9.292;2022-12-18T10:33:24;32.60;;;14.45;;
50932;SDS011;36921;49.006;9.292;2022-12-18T10:35:55;32.75;;;15.07;;
50932;SDS011;36921;49.006;9.292;2022-12-18T10:38:22;31.15;;;13.85;;
50932;SDS011;36921;49.006;9.292;2022-12-18T10:40:56;29.55;;;13.95;;
50932;SDS011;36921;49.006;9.292;2022-12-18T10:48:26;32.42;;;15.15;;
50932;SDS011;36921;49.006;9.292;2022-12-18T10:50:52;32.75;;;15.13;;
50932;SDS011;36921;49.006;9.292;2022-12-18T10:53:22;30.77;;;13.93;;
50932;SDS011;36921;49.006;9.292;2022-12-18T10:55:51;35.58;;;15.00;;
50932;SDS011;36921;49.006;9.292;2022-12-18T10:58:21;32.72;;;14.35;;
50932;SDS011;36921;49.006;9.292;2022-12-18T11:03:39;31.48;;;14.23;;
50932;SDS011;36921;49.006;9.292;2022-12-18T11:06:25;35.38;;;15.50;;
50932;SDS011;36921;49.006;9.292;2022-12-18T11:08:59;32.78;;;13.73;;
50932;SDS011;36921;49.006;9.292;2022-12-18T11:11:48;34.13;;;13.93;;
50932;SDS011;36921;49.006;9.292;2022-12-18T11:14:20;34.28;;;14.85;;
50932;SDS011;36921;49.006;9.292;2022-12-18T11:16:51;34.47;;;14.80;;
50932;SDS011;36921;49.006;9.292;2022-12-18T11:19:28;33.63;;;14.80;;
50932;SDS011;36921;49.006;9.292;2022-12-18T11:21:59;35.35;;;14.77;;
50932;SDS011;36921;49.006;9.292;2022-12-18T11:24:31;35.63;;;15.23;;
50932;SDS011;36921;49.006;9.292;2022-12-18T11:27:02;35.47;;;15.23;;
50932;SDS011;36921;49.006;9.292;2022-12-18T11:29:34;29.77;;;14.65;;
50932;SDS011;36921;49.006;9.292;2022-12-18T11:32:12;33.20;;;13.98;;
50932;SDS011;36921;49.006;9.292;2022-12-18T11:35:01;42.45;;;17.40;;
50932;SDS011;36921;49.006;9.292;2022-12-18T11:37:35;34.67;;;14.90;;
50932;SDS011;36921;49.006;9.292;2022-12-18T11:40:24;32.25;;;13.75;;
50932;SDS011;36921;49.006;9.292;2022-12-18T11:45:58;36.38;;;15.50;;
50932;SDS011;36921;49.006;9.292;2022-12-18T11:48:35;34.60;;;14.50;;
50932;SDS011;36921;49.006;9.292;2022-12-18T11:51:09;36.90;;;15.00;;
50932;SDS011;36921;49.006;9.292;2022-12-18T11:53:40;32.08;;;13.90;;
50932;SDS011;36921;49.006;9.292;2022-12-18T11:58:41;29.90;;;13.80;;
50932;SDS011;36921;49.006;9.292;2022-12-18T12:04:27;32.35;;;13.57;;
50932;SDS011;36921;49.006;9.292;2022-12-18T12:09:59;30.13;;;12.93;;
50932;SDS011;36921;49.006;9.292;2022-12-18T12:12:45;31.23;;;12.93;;
50932;SDS011;36921;49.006;9.292;2022-12-18T12:26:20;32.47;;;12.57;;
50932;SDS011;36921;49.006;9.292;2022-12-18T12:29:01;22.80;;;9.50;;
50932;SDS011;36921;49.006;9.292;2022-12-18T12:31:47;29.55;;;12.18;;
50932;SDS011;36921;49.006;9.292;2022-12-18T12:34:46;31.23;;;11.82;;
50932;SDS011;36921;49.006;9.292;2022-12-18T12:40:13;29.73;;;11.82;;
50932;SDS011;36921;49.006;9.292;2022-12-18T12:42:44;29.35;;;12.40;;
50932;SDS011;36921;49.006;9.292;2022-12-18T12:45:37;29.45;;;12.65;;
50932;SDS011;36921;49.006;9.292;2022-12-18T12:48:16;31.35;;;12.73;;
50932;SDS011;36921;49.006;9.292;2022-12-18T12:50:48;29.77;;;12.25;;
50932;SDS011;36921;49.006;9.292;2022-12-18T12:53:21;31.35;;;13.18;;
50932;SDS011;36921;49.006;9.292;2022-12-18T12:55:51;30.52;;;13.45;;
50932;SDS011;36921;49.006;9.292;2022-12-18T13:05:56;28.80;;;12.00;;
50932;SDS011;36921;49.006;9.292;2022-12-18T13:08:30;30.08;;;13.50;;
50932;SDS011;36921;49.006;9.292;2022-12-18T13:10:57;26.88;;;12.43;;
50932;SDS011;36921;49.006;9.292;2022-12-18T13:13:49;31.83;;;13.40;;
50932;SDS011;36921;49.006;9.292;2022-12-18T13:16:20;33.33;;;13.55;;
50932;SDS011;36921;49.006;9.292;2022-12-18T13:18:54;31.75;;;13.82;;
50932;SDS011;36921;49.006;9.292;2022-12-18T13:23:52;29.90;;;12.70;;
50932;SDS011;36921;49.006;9.292;2022-12-18T13:31:13;31.05;;;12.48;;
50932;SDS011;36921;49.006;9.292;2022-12-18T13:33:41;29.02;;;12.13;;
50932;SDS011;36921;49.006;9.292;2022-12-18T13:38:52;32.33;;;12.05;;
50932;SDS011;36921;49.006;9.292;2022-12-18T13:41:40;31.70;;;12.48;;
50932;SDS011;36921;49.006;9.292;2022-12-18T13:44:26;30.15;;;12.40;;
50932;SDS011;36921;49.006;9.292;2022-12-18T13:46:58;28.70;;;11.10;;
50932;SDS011;36921;49.006;9.292;2022-12-18T13:52:14;32.15;;;12.05;;
50932;SDS011;36921;49.006;9.292;2022-12-18T13:54:43;31.23;;;11.93;;
50932;SDS011;36921;49.006;9.292;2022-12-18T13:57:29;34.67;;;12.25;;
50932;SDS011;36921;49.006;9.292;2022-12-18T14:02:46;29.90;;;12.43;;
50932;SDS011;36921;49.006;9.292;2022-12-18T14:08:06;39.10;;;12.90;;
50932;SDS011;36921;49.006;9.292;2022-12-18T14:10:35;35.13;;;13.68;;
50932;SDS011;36921;49.006;9.292;2022-12-18T14:13:06;33.63;;;12.48;;
50932;SDS011;36921;49.006;9.292;2022-12-18T14:15:43;35.97;;;13.73;;
50932;SDS011;36921;49.006;9.292;2022-12-18T14:20:51;29.98;;;12.27;;
50932;SDS011;36921;49.006;9.292;2022-12-18T14:25:57;38.15;;;13.68;;
50932;SDS011;36921;49.006;9.292;2022-12-18T14:28:23;35.35;;;13.23;;
50932;SDS011;36921;49.006;9.292;2022-12-18T14:30:49;35.63;;;13.27;;
50932;SDS011;36921;49.006;9.292;2022-12-18T14:35:59;34.78;;;13.55;;
50932;SDS011;36921;49.006;9.292;2022-12-18T14:40:57;36.00;;;12.90;;
50932;SDS011;36921;49.006;9.292;2022-12-18T14:43:28;36.85;;;13.93;;
50932;SDS011;36921;49.006;9.292;2022-12-18T14:45:57;36.10;;;12.65;;
50932;SDS011;36921;49.006;9.292;2022-12-18T14:48:56;31.17;;;11.77;;
50932;SDS011;36921;49.006;9.292;2022-12-18T14:51:20;32.50;;;11.45;;
50932;SDS011;36921;49.006;9.292;2022-12-18T14:53:48;29.02;;;11.85;;
50932;SDS011;36921;49.006;9.292;2022-12-18T15:02:18;31.55;;;11.88;;
50932;SDS011;36921;49.006;9.292;2022-12-18T15:05:04;31.65;;;11.82;;
50932;SDS011;36921;49.006;9.292;2022-12-18T15:07:51;37.42;;;12.75;;
50932;SDS011;36921;49.006;9.292;2022-12-18T15:10:20;29.52;;;11.80;;
50932;SDS011;36921;49.006;9.292;2022-12-18T15:18:11;35.22;;;12.57;;
50932;SDS011;36921;49.006;9.292;2022-12-18T15:20:44;39.95;;;12.95;;
50932;SDS011;36921;49.006;9.292;2022-12-18T15:26:09;42.05;;;13.98;;
50932;SDS011;36921;49.006;9.292;2022-12-18T15:33:40;37.30;;;13.32;;
50932;SDS011;36921;49.006;9.292;2022-12-18T15:36:13;32.90;;;11.57;;
50932;SDS011;36921;49.006;9.292;2022-12-18T15:38:41;38.72;;;13.63;;
50932;SDS011;36921;49.006;9.292;2022-12-18T15:41:13;33.40;;;11.40;;
50932;SDS011;36921;49.006;9.292;2022-12-18T15:43:40;40.10;;;12.02;;
50932;SDS011;36921;49.006;9.292;2022-12-18T15:46:08;32.90;;;12.18;;
50932;SDS011;36921;49.006;9.292;2022-12-18T15:48:40;32.72;;;11.38;;
50932;SDS011;36921;49.006;9.292;2022-12-18T15:51:11;29.83;;;11.23;;
50932;SDS011;36921;49.006;9.292;2022-12-18T15:53:40;31.92;;;11.65;;
50932;SDS011;36921;49.006;9.292;2022-12-18T15:56:09;33.25;;;11.63;;
50932;SDS011;36921;49.006;9.292;2022-12-18T15:58:54;36.13;;;12.98;;
50932;SDS011;36921;49.006;9.292;2022-12-18T16:01:21;38.63;;;14.13;;
50932;SDS011;36921;49.006;9.292;2022-12-18T16:03:48;39.22;;;12.88;;
50932;SDS011;36921;49.006;9.292;2022-12-18T16:06:14;32.63;;;12.85;;
50932;SDS011;36921;49.006;9.292;2022-12-18T16:08:39;34.35;;;13.15;;
50932;SDS011;36921;49.006;9.292;2022-12-18T16:11:05;36.72;;;14.13;;
50932;SDS011;36921;49.006;9.292;2022-12-18T16:13:30;39.65;;;13.60;;
50932;SDS011;36921;49.006;9.292;2022-12-18T16:18:24;35.17;;;13.25;;
50932;SDS011;36921;49.006;9.292;2022-12-18T16:20:56;38.22;;;13.15;;
50932;SDS011;36921;49.006;9.292;2022-12-18T16:23:21;36.22;;;14.10;;
50932;SDS011;36921;49.006;9.292;2022-12-18T16:25:46;41.97;;;14.27;;
50932;SDS011;36921;49.006;9.292;2022-12-18T16:28:12;41.88;;;14.93;;
50932;SDS011;36921;49.006;9.292;2022-12-18T16:30:38;39.92;;;15.25;;
50932;SDS011;36921;49.006;9.292;2022-12-18T16:33:03;39.63;;;12.52;;